Time;durP1;ratioP1;P1;durP2;ratioP2;P2;SDS_P1;SDS_P2;PMS_P1;PMS_P2;Temp;Humidity;BMP_temperature;BMP_pressure;BME280_temperature;BME280_humidity;BME280_pressure;Samples;Min_cycle;Max_cycle;Signal;HPM_P1;HPM_P2
2022/11/23 00:00:38;;;;;;;1.95;1.25;;;11.00;94.90;;;;;;5071605;28;20035;-82
2022/11/23 00:03:03;;;;;;;1.50;1.30;;;11.00;94.80;;;;;;5062518;28;20029;-82
2022/11/23 00:05:30;;;;;;;2.05;1.30;;;11.10;94.80;;;;;;5061568;28;20091;-82
2022/11/23 00:07:56;;;;;;;1.77;1.15;;;11.00;94.70;;;;;;5065638;28;20031;-81
2022/11/23 00:10:22;;;;;;;1.35;1.13;;;11.00;94.70;;;;;;5064762;28;20033;-82
2022/11/23 00:12:48;;;;;;;2.15;1.38;;;11.10;94.80;;;;;;5072200;28;20032;-82
2022/11/23 00:15:15;;;;;;;1.98;1.38;;;10.90;94.20;;;;;;5072444;28;20369;-82
2022/11/23 00:17:40;;;;;;;1.42;1.00;;;10.90;94.60;;;;;;5065818;28;20028;-83
2022/11/23 00:20:08;;;;;;;1.38;1.10;;;10.90;94.70;;;;;;5070143;28;20056;-82
2022/11/23 00:22:34;;;;;;;1.23;0.85;;;10.90;94.80;;;;;;5071156;28;20045;-83
2022/11/23 00:24:59;;;;;;;1.67;0.93;;;11.00;94.70;;;;;;5068863;28;20032;-83
2022/11/23 00:27:25;;;;;;;2.63;1.17;;;11.00;94.60;;;;;;5067633;28;20086;-84
2022/11/23 00:29:51;;;;;;;1.45;1.00;;;11.00;94.50;;;;;;5069563;28;20044;-82
2022/11/23 00:32:16;;;;;;;1.58;0.85;;;11.00;94.50;;;;;;5069705;28;20069;-82
2022/11/23 00:34:42;;;;;;;1.80;0.90;;;11.00;94.50;;;;;;5070188;28;20100;-82
2022/11/23 00:37:07;;;;;;;1.13;0.70;;;11.00;94.50;;;;;;5064859;28;20109;-84
2022/11/23 00:39:33;;;;;;;0.85;0.68;;;10.80;94.90;;;;;;5068279;28;20032;-82
2022/11/23 00:41:59;;;;;;;1.70;0.77;;;10.80;95.00;;;;;;5070746;28;20039;-82
2022/11/23 00:44:24;;;;;;;1.08;0.68;;;10.90;94.90;;;;;;5069139;28;20031;-82
2022/11/23 00:46:50;;;;;;;1.45;0.93;;;10.90;94.90;;;;;;5064449;28;20114;-81
2022/11/23 00:49:16;;;;;;;1.05;0.82;;;11.00;94.90;;;;;;5071667;28;20381;-81
2022/11/23 00:51:41;;;;;;;0.77;0.70;;;11.00;94.90;;;;;;5068134;28;20116;-81
2022/11/23 00:54:07;;;;;;;1.00;0.70;;;11.00;95.10;;;;;;5067426;28;20040;-81
2022/11/23 00:56:34;;;;;;;1.20;0.50;;;11.00;94.90;;;;;;5070747;28;20119;-81
2022/11/23 00:59:01;;;;;;;0.52;0.50;;;11.10;95.00;;;;;;5071184;28;20044;-81
2022/11/23 01:01:29;;;;;;;1.48;0.52;;;11.10;94.90;;;;;;5062031;28;20025;-81
2022/11/23 01:03:57;;;;;;;0.65;0.60;;;11.10;94.90;;;;;;5068232;28;20499;-82
2022/11/23 01:06:28;;;;;;;0.95;0.63;;;11.20;94.90;;;;;;5064488;28;20029;-81
2022/11/23 01:09:00;;;;;;;0.80;0.50;;;11.20;94.90;;;;;;5066904;28;20029;-82
2022/11/23 01:11:28;;;;;;;0.35;0.32;;;11.20;94.80;;;;;;5071957;28;20097;-82
2022/11/23 01:13:55;;;;;;;1.20;0.88;;;11.20;94.80;;;;;;5050079;28;20116;-81
2022/11/23 01:16:29;;;;;;;2.38;0.52;;;11.20;94.80;;;;;;5063683;28;20083;-81
2022/11/23 01:18:59;;;;;;;1.55;0.88;;;11.20;94.80;;;;;;5067091;28;20025;-81
2022/11/23 01:21:26;;;;;;;0.95;0.70;;;11.20;94.70;;;;;;5063522;28;20049;-80
2022/11/23 01:23:52;;;;;;;3.83;0.90;;;11.10;94.60;;;;;;5059820;28;20033;-80
2022/11/23 01:26:18;;;;;;;0.50;0.50;;;11.10;94.70;;;;;;5069294;28;20398;-80
2022/11/23 01:28:44;;;;;;;0.93;0.70;;;11.20;94.80;;;;;;5067721;28;20027;-80
2022/11/23 01:31:21;;;;;;;1.10;0.80;;;11.20;94.80;;;;;;5066580;28;20036;-78
2022/11/23 01:33:51;;;;;;;1.35;0.98;;;11.20;94.80;;;;;;5068783;28;20116;-78
2022/11/23 01:36:19;;;;;;;2.33;1.10;;;11.20;94.70;;;;;;5066785;28;20067;-78
2022/11/23 01:38:46;;;;;;;0.73;0.70;;;11.30;94.70;;;;;;5068280;28;20021;-79
2022/11/23 01:41:16;;;;;;;1.20;0.63;;;11.30;94.60;;;;;;5053611;28;20317;-79
2022/11/23 01:43:41;;;;;;;1.10;0.80;;;11.20;94.50;;;;;;5062912;28;20036;-81
2022/11/23 01:46:08;;;;;;;1.23;0.80;;;11.20;94.60;;;;;;5071052;28;20025;-81
2022/11/23 01:48:38;;;;;;;1.55;0.90;;;11.20;94.70;;;;;;5070463;28;20028;-81
2022/11/23 01:51:38;;;;;;;1.15;0.98;;;11.20;94.70;;;;;;5069341;28;20497;-81
2022/11/23 01:54:09;;;;;;;2.08;1.10;;;11.20;94.70;;;;;;5070833;28;20028;-81
2022/11/23 01:56:40;;;;;;;0.82;0.70;;;11.30;94.80;;;;;;5069008;28;20728;-81
2022/11/23 01:59:11;;;;;;;1.88;0.88;;;11.30;94.80;;;;;;5063777;28;20047;-80
2022/11/23 02:01:36;;;;;;;1.33;0.70;;;11.30;94.80;;;;;;5065789;28;20051;-81
2022/11/23 02:04:03;;;;;;;1.35;0.75;;;11.30;94.80;;;;;;5067085;28;20456;-81
2022/11/23 02:06:30;;;;;;;0.90;0.77;;;11.30;94.80;;;;;;5067694;28;20108;-81
2022/11/23 02:08:55;;;;;;;2.38;0.80;;;11.30;94.80;;;;;;5064618;28;20028;-81
2022/11/23 02:11:21;;;;;;;1.10;1.00;;;11.30;94.80;;;;;;5074696;28;20039;-82
2022/11/23 02:13:50;;;;;;;0.98;0.80;;;11.30;94.80;;;;;;5073875;28;20024;-81
2022/11/23 02:16:16;;;;;;;1.25;0.85;;;11.30;94.80;;;;;;5061145;28;20045;-80
2022/11/23 02:18:45;;;;;;;1.33;1.00;;;11.30;94.80;;;;;;5071117;28;20035;-80
2022/11/23 02:21:12;;;;;;;0.70;0.65;;;11.30;94.80;;;;;;5065164;28;20091;-81
2022/11/23 02:23:51;;;;;;;0.90;0.73;;;11.30;94.80;;;;;;5073819;28;20371;-80
2022/11/23 02:26:27;;;;;;;1.83;1.00;;;11.30;94.80;;;;;;5073152;28;20412;-79
2022/11/23 02:29:07;;;;;;;1.00;0.73;;;11.30;94.80;;;;;;5068713;28;20020;-79
2022/11/23 02:31:33;;;;;;;0.88;0.70;;;11.30;94.80;;;;;;5068919;28;20041;-79
2022/11/23 02:33:58;;;;;;;1.58;0.90;;;11.30;94.90;;;;;;5066492;28;20040;-79
2022/11/23 02:36:27;;;;;;;1.05;0.75;;;11.30;94.90;;;;;;5065829;28;20024;-79
2022/11/23 02:38:54;;;;;;;1.85;0.98;;;11.30;94.90;;;;;;5067067;28;20025;-81
2022/11/23 02:41:20;;;;;;;1.40;0.90;;;11.30;94.90;;;;;;5067108;28;20032;-82
2022/11/23 02:43:50;;;;;;;0.93;0.60;;;11.30;95.00;;;;;;5073485;28;20033;-81
2022/11/23 02:46:16;;;;;;;1.15;0.85;;;11.30;95.00;;;;;;5062794;28;20029;-82
2022/11/23 02:48:42;;;;;;;0.98;0.85;;;11.30;95.00;;;;;;5063462;28;20477;-78
2022/11/23 02:51:07;;;;;;;1.38;0.93;;;11.30;95.00;;;;;;5067102;28;20099;-81
2022/11/23 02:53:33;;;;;;;0.80;0.70;;;11.30;95.00;;;;;;5073712;28;20029;-82
2022/11/23 02:55:59;;;;;;;2.42;1.00;;;11.20;95.10;;;;;;5065847;28;20029;-82
2022/11/23 02:58:24;;;;;;;1.35;1.00;;;11.20;95.10;;;;;;5062222;28;20069;-82
2022/11/23 03:00:50;;;;;;;1.45;0.90;;;11.20;95.10;;;;;;5052484;28;20027;-81
2022/11/23 03:03:16;;;;;;;1.52;0.90;;;11.20;95.10;;;;;;5072244;28;20039;-81
2022/11/23 03:05:41;;;;;;;1.33;1.08;;;11.30;95.10;;;;;;5050261;28;20055;-81
2022/11/23 03:08:07;;;;;;;1.27;0.90;;;11.20;95.00;;;;;;5071478;28;20044;-81
2022/11/23 03:10:33;;;;;;;1.00;0.80;;;11.20;95.00;;;;;;5061724;28;20025;-82
2022/11/23 03:12:58;;;;;;;1.83;1.13;;;11.30;95.10;;;;;;5065662;28;20473;-80
2022/11/23 03:15:24;;;;;;;1.35;1.10;;;11.20;95.10;;;;;;5070079;28;20032;-80
2022/11/23 03:17:50;;;;;;;2.75;1.00;;;11.20;95.10;;;;;;5071997;28;20040;-80
2022/11/23 03:20:16;;;;;;;3.17;1.00;;;11.20;95.00;;;;;;5066259;28;20045;-81
2022/11/23 03:22:41;;;;;;;1.60;0.68;;;11.10;95.00;;;;;;5067322;28;20115;-82
2022/11/23 03:25:07;;;;;;;1.30;0.70;;;11.10;94.90;;;;;;5074001;28;20044;-82
2022/11/23 03:27:33;;;;;;;2.95;1.00;;;11.00;95.00;;;;;;5067124;28;20687;-81
2022/11/23 03:29:59;;;;;;;1.10;0.82;;;11.00;95.10;;;;;;5068319;28;20039;-81
2022/11/23 03:32:25;;;;;;;1.23;0.75;;;11.00;95.20;;;;;;5072142;28;20025;-82
2022/11/23 03:34:51;;;;;;;1.42;0.90;;;11.00;95.10;;;;;;5065505;28;20036;-81
2022/11/23 03:37:16;;;;;;;1.70;1.02;;;11.00;95.10;;;;;;5072339;28;20033;-82
2022/11/23 03:39:42;;;;;;;1.80;1.20;;;11.00;95.10;;;;;;5069166;28;20378;-82
2022/11/23 03:42:07;;;;;;;1.00;0.75;;;11.00;95.00;;;;;;5068566;28;20107;-82
2022/11/23 03:44:33;;;;;;;1.17;0.88;;;11.00;95.10;;;;;;5064023;28;20442;-82
2022/11/23 03:46:59;;;;;;;1.40;0.90;;;11.00;95.00;;;;;;5068171;28;20097;-81
2022/11/23 03:49:25;;;;;;;1.98;0.80;;;11.00;94.80;;;;;;5064037;28;20095;-81
2022/11/23 03:51:50;;;;;;;1.67;0.90;;;11.00;94.90;;;;;;5065255;28;20028;-82
2022/11/23 03:54:16;;;;;;;1.10;0.80;;;11.00;94.90;;;;;;5071474;28;20499;-81
2022/11/23 03:56:42;;;;;;;1.23;0.98;;;11.00;94.90;;;;;;5048354;28;20037;-82
2022/11/23 03:59:07;;;;;;;0.68;0.57;;;11.00;94.90;;;;;;5064701;28;20078;-82
2022/11/23 04:01:33;;;;;;;3.15;0.88;;;11.00;94.90;;;;;;5069008;28;20404;-82
2022/11/23 04:03:59;;;;;;;0.80;0.77;;;11.10;94.90;;;;;;5066287;28;20028;-82
2022/11/23 04:06:24;;;;;;;0.98;0.80;;;11.10;94.80;;;;;;5067332;28;20377;-81
2022/11/23 04:08:50;;;;;;;2.30;1.50;;;11.10;94.80;;;;;;5064338;28;20480;-81
2022/11/23 04:11:16;;;;;;;1.55;1.17;;;11.10;94.80;;;;;;5067696;28;20036;-82
2022/11/23 04:13:41;;;;;;;1.60;1.02;;;11.10;94.70;;;;;;5072365;28;20111;-82
2022/11/23 04:16:07;;;;;;;1.42;1.10;;;11.10;94.60;;;;;;5068997;28;20032;-81
2022/11/23 04:18:33;;;;;;;2.00;1.10;;;11.00;94.50;;;;;;5072512;28;20035;-82
2022/11/23 04:20:58;;;;;;;2.08;1.20;;;11.00;94.50;;;;;;5052882;28;20041;-83
2022/11/23 04:23:24;;;;;;;2.58;1.48;;;11.00;94.50;;;;;;5063999;28;20043;-83
2022/11/23 04:25:50;;;;;;;1.20;1.10;;;11.00;94.50;;;;;;5064069;28;20020;-81
2022/11/23 04:28:16;;;;;;;2.15;1.30;;;11.00;94.50;;;;;;5056766;28;20094;-82
2022/11/23 04:30:41;;;;;;;1.90;1.27;;;11.00;94.50;;;;;;5069393;28;20089;-82
2022/11/23 04:33:07;;;;;;;3.10;1.65;;;10.90;94.50;;;;;;5068139;28;20032;-81
2022/11/23 04:35:34;;;;;;;2.58;1.50;;;10.90;94.50;;;;;;5071770;28;20032;-81
2022/11/23 04:38:01;;;;;;;1.20;1.10;;;10.90;94.60;;;;;;5060883;28;20111;-83
2022/11/23 04:40:27;;;;;;;1.85;1.38;;;10.90;94.60;;;;;;5065103;28;20028;-83
2022/11/23 04:42:53;;;;;;;1.85;1.30;;;10.90;94.50;;;;;;5067741;28;20100;-84
2022/11/23 04:45:19;;;;;;;1.98;1.52;;;10.90;94.50;;;;;;5058297;28;20112;-82
2022/11/23 04:47:44;;;;;;;2.10;1.50;;;10.90;94.60;;;;;;5069778;28;20028;-83
2022/11/23 04:50:10;;;;;;;2.65;1.65;;;10.90;94.60;;;;;;5060463;28;20037;-83
2022/11/23 04:52:36;;;;;;;2.15;1.60;;;11.00;94.50;;;;;;5062869;28;20446;-84
2022/11/23 04:55:01;;;;;;;1.95;1.48;;;10.90;94.40;;;;;;5071942;28;20528;-83
2022/11/23 04:57:27;;;;;;;2.42;1.80;;;10.90;94.50;;;;;;5065100;28;20544;-82
2022/11/23 04:59:53;;;;;;;2.60;1.95;;;10.90;94.60;;;;;;5061595;28;20874;-82
2022/11/23 05:02:18;;;;;;;3.05;1.80;;;10.90;94.60;;;;;;5071076;28;20020;-80
2022/11/23 05:04:44;;;;;;;6.43;1.80;;;10.90;94.60;;;;;;5070963;28;20652;-82
2022/11/23 05:07:09;;;;;;;2.55;2.13;;;10.90;94.60;;;;;;5071930;28;20020;-82
2022/11/23 05:09:35;;;;;;;3.05;1.85;;;10.90;94.60;;;;;;5070739;28;20028;-82
2022/11/23 05:12:01;;;;;;;2.85;2.08;;;10.90;94.60;;;;;;5053529;28;20028;-81
2022/11/23 05:14:26;;;;;;;3.92;2.70;;;10.90;94.60;;;;;;5068455;28;20036;-81
2022/11/23 05:16:52;;;;;;;3.65;2.65;;;11.00;94.60;;;;;;5065232;28;20414;-83
2022/11/23 05:19:17;;;;;;;4.18;2.35;;;10.90;94.30;;;;;;5057936;28;20044;-82
2022/11/23 05:21:43;;;;;;;3.08;2.35;;;10.90;94.40;;;;;;5062194;28;20038;-81
2022/11/23 05:24:09;;;;;;;3.17;2.20;;;10.90;94.40;;;;;;5063720;28;20442;-82
2022/11/23 05:26:34;;;;;;;2.22;1.98;;;10.80;94.40;;;;;;5071220;28;20025;-82
2022/11/23 05:29:00;;;;;;;3.63;2.28;;;10.80;94.40;;;;;;5061309;28;20473;-80
2022/11/23 05:31:25;;;;;;;2.83;2.08;;;10.80;94.50;;;;;;5061322;28;20036;-81
2022/11/23 05:33:51;;;;;;;3.63;2.60;;;10.80;94.60;;;;;;5067258;28;20079;-81
2022/11/23 05:36:17;;;;;;;3.25;2.55;;;10.80;94.50;;;;;;5069676;28;20027;-81
2022/11/23 05:38:42;;;;;;;2.80;2.20;;;10.80;94.50;;;;;;5073178;28;20068;-80
2022/11/23 05:41:08;;;;;;;5.07;2.20;;;10.80;94.50;;;;;;5068102;28;20520;-82
2022/11/23 05:43:34;;;;;;;3.45;2.58;;;10.80;94.50;;;;;;5064738;28;20385;-82
2022/11/23 05:46:00;;;;;;;3.20;2.35;;;10.80;94.60;;;;;;5073001;28;20025;-82
2022/11/23 05:48:26;;;;;;;3.30;2.42;;;10.80;94.60;;;;;;5062062;28;20032;-81
2022/11/23 05:50:52;;;;;;;4.05;2.65;;;10.80;94.60;;;;;;5069586;28;20037;-82
2022/11/23 05:53:18;;;;;;;3.20;2.53;;;10.80;94.60;;;;;;5064404;28;20048;-80
2022/11/23 05:55:44;;;;;;;3.35;2.38;;;10.80;94.60;;;;;;5070270;28;20394;-82
2022/11/23 05:58:10;;;;;;;4.80;2.80;;;10.80;94.70;;;;;;5073242;28;20123;-78
2022/11/23 06:00:36;;;;;;;3.60;2.80;;;10.80;94.60;;;;;;5052143;28;20170;-78
2022/11/23 06:03:03;;;;;;;4.63;2.83;;;10.80;94.60;;;;;;5073736;28;20031;-77
2022/11/23 06:05:29;;;;;;;4.30;3.30;;;10.80;94.60;;;;;;5067769;28;20044;-78
2022/11/23 06:08:12;;;;;;;4.15;3.33;;;10.80;94.60;;;;;;5063921;28;20060;-77
2022/11/23 06:10:38;;;;;;;5.13;3.70;;;10.80;94.60;;;;;;5063418;28;20021;-78
2022/11/23 06:13:04;;;;;;;3.97;3.47;;;10.80;94.70;;;;;;5062675;28;20031;-78
2022/11/23 06:15:30;;;;;;;5.45;3.55;;;10.80;94.70;;;;;;5070683;28;20066;-75
2022/11/23 06:18:00;;;;;;;6.32;4.07;;;10.80;94.80;;;;;;5073705;28;20025;-74
2022/11/23 06:20:27;;;;;;;4.97;3.60;;;10.90;94.80;;;;;;5069130;28;20094;-75
2022/11/23 06:22:54;;;;;;;5.07;4.05;;;10.90;94.70;;;;;;5071454;28;20716;-74
2022/11/23 06:25:20;;;;;;;5.78;4.05;;;10.80;94.60;;;;;;5074015;28;20047;-75
2022/11/23 06:27:56;;;;;;;5.35;4.25;;;10.80;94.60;;;;;;5074476;28;20025;-74
2022/11/23 06:30:23;;;;;;;6.72;4.63;;;10.80;94.70;;;;;;5069760;28;20060;-74
2022/11/23 06:32:48;;;;;;;8.32;5.15;;;10.80;94.60;;;;;;5072919;28;20358;-74
2022/11/23 06:35:14;;;;;;;6.07;4.32;;;10.80;94.60;;;;;;5064936;28;20043;-75
2022/11/23 06:37:40;;;;;;;6.30;4.78;;;10.80;94.70;;;;;;5073906;28;20099;-74
2022/11/23 06:40:06;;;;;;;6.45;4.90;;;10.80;94.70;;;;;;5073876;28;20124;-75
2022/11/23 06:42:32;;;;;;;5.88;5.15;;;10.80;94.70;;;;;;5073484;28;20036;-74
2022/11/23 06:44:58;;;;;;;5.70;4.80;;;10.80;94.70;;;;;;5064460;28;20082;-76
2022/11/23 06:47:23;;;;;;;6.45;4.97;;;10.80;94.70;;;;;;5073329;28;20021;-76
2022/11/23 06:49:49;;;;;;;6.57;5.15;;;10.80;94.70;;;;;;5071680;28;20047;-83
2022/11/23 06:52:15;;;;;;;6.18;4.97;;;10.80;94.60;;;;;;5068670;28;20029;-77
2022/11/23 06:54:40;;;;;;;5.47;4.43;;;10.80;94.60;;;;;;5069815;28;20462;-74
2022/11/23 06:57:07;;;;;;;5.55;4.53;;;10.80;94.50;;;;;;5061322;28;20040;-74
2022/11/23 06:59:33;;;;;;;8.20;4.93;;;10.80;94.50;;;;;;5072264;28;20081;-74
2022/11/23 07:01:58;;;;;;;8.32;5.40;;;10.80;94.90;;;;;;5065076;28;20013;-74
2022/11/23 07:04:24;;;;;;;7.07;5.50;;;10.80;95.10;;;;;;5067610;28;20431;-74
2022/11/23 07:06:50;;;;;;;7.93;5.68;;;10.90;94.70;;;;;;5062487;28;20036;-81
2022/11/23 07:09:15;;;;;;;9.02;6.05;;;10.80;94.50;;;;;;5057368;28;20099;-74
2022/11/23 07:11:41;;;;;;;9.90;6.38;;;10.80;94.60;;;;;;5070337;28;20074;-78
2022/11/23 07:14:07;;;;;;;8.50;6.20;;;10.80;94.70;;;;;;5071645;28;20504;-78
2022/11/23 07:16:32;;;;;;;7.97;6.50;;;10.70;94.40;;;;;;5071465;28;20036;-78
2022/11/23 07:18:58;;;;;;;8.13;6.20;;;10.70;94.40;;;;;;5072752;28;20040;-78
2022/11/23 07:21:24;;;;;;;8.77;7.10;;;10.70;94.40;;;;;;5073539;28;20077;-78
2022/11/23 07:23:49;;;;;;;9.85;6.90;;;10.60;94.40;;;;;;5073435;28;20111;-78
2022/11/23 07:26:15;;;;;;;9.13;6.82;;;10.60;94.50;;;;;;5073907;28;20077;-79
2022/11/23 07:28:41;;;;;;;8.05;6.63;;;10.60;94.50;;;;;;5073416;28;20024;-79
2022/11/23 07:31:07;;;;;;;7.40;6.10;;;10.60;94.50;;;;;;5054818;28;20360;-74
2022/11/23 07:33:32;;;;;;;8.18;6.60;;;10.60;94.40;;;;;;5073520;28;20094;-74
2022/11/23 07:36:01;;;;;;;8.45;6.63;;;10.60;94.50;;;;;;5072538;28;20021;-75
2022/11/23 07:38:28;;;;;;;9.48;7.18;;;10.50;94.50;;;;;;5073037;28;20028;-76
2022/11/23 07:40:53;;;;;;;9.23;7.78;;;10.50;94.50;;;;;;5073130;28;20036;-74
2022/11/23 07:43:19;;;;;;;9.52;7.30;;;10.60;94.50;;;;;;5062705;28;20025;-75
2022/11/23 07:45:45;;;;;;;8.57;6.97;;;10.60;94.50;;;;;;5045473;28;20025;-75
2022/11/23 07:48:12;;;;;;;9.30;7.18;;;10.60;94.50;;;;;;5064561;28;20502;-75
2022/11/23 07:50:38;;;;;;;8.82;6.95;;;10.60;94.40;;;;;;5074468;28;20020;-75
2022/11/23 07:53:05;;;;;;;8.68;6.65;;;10.60;94.50;;;;;;5068864;28;20028;-75
2022/11/23 07:55:32;;;;;;;10.55;7.65;;;10.60;94.50;;;;;;5050813;28;20024;-75
2022/11/23 07:57:58;;;;;;;8.88;7.22;;;10.60;94.50;;;;;;5068173;28;20036;-80
2022/11/23 08:00:25;;;;;;;8.85;6.95;;;10.50;94.50;;;;;;5058051;28;20043;-81
2022/11/23 08:02:51;;;;;;;9.63;7.68;;;10.50;94.50;;;;;;5070112;28;20025;-81
2022/11/23 08:05:17;;;;;;;7.63;6.45;;;10.60;94.50;;;;;;5057769;28;20039;-80
2022/11/23 08:07:43;;;;;;;8.63;7.32;;;10.60;94.50;;;;;;5065223;28;20459;-80
2022/11/23 08:10:11;;;;;;;9.90;7.18;;;10.60;94.50;;;;;;5065613;28;20032;-80
2022/11/23 08:12:37;;;;;;;9.63;7.15;;;10.50;94.40;;;;;;5064095;28;20040;-81
2022/11/23 08:15:03;;;;;;;8.18;6.90;;;10.60;94.50;;;;;;5059648;28;20040;-80
2022/11/23 08:17:29;;;;;;;8.52;7.47;;;10.50;94.50;;;;;;5058356;28;20104;-80
2022/11/23 08:19:55;;;;;;;10.10;7.32;;;10.60;94.60;;;;;;5059776;28;20194;-80
2022/11/23 08:22:21;;;;;;;10.05;7.65;;;10.60;94.60;;;;;;5069177;28;20033;-80
2022/11/23 08:24:47;;;;;;;10.43;7.72;;;10.60;94.60;;;;;;5063503;28;20115;-78
2022/11/23 08:27:12;;;;;;;8.13;7.20;;;10.60;94.60;;;;;;5070362;28;20493;-80
2022/11/23 08:29:38;;;;;;;8.75;7.15;;;10.70;94.60;;;;;;5070825;28;20047;-80
2022/11/23 08:32:04;;;;;;;7.68;6.68;;;10.80;94.60;;;;;;5063161;28;20047;-80
2022/11/23 08:34:29;;;;;;;11.98;8.45;;;10.80;94.60;;;;;;5070587;28;20029;-75
2022/11/23 08:36:56;;;;;;;10.88;7.60;;;10.90;94.60;;;;;;5049007;28;20032;-80
2022/11/23 08:39:21;;;;;;;11.45;7.55;;;11.00;94.60;;;;;;5065651;28;20103;-80
2022/11/23 08:41:47;;;;;;;10.90;7.55;;;11.10;94.60;;;;;;5069088;28;20028;-80
2022/11/23 08:44:13;;;;;;;18.25;7.40;;;11.10;94.50;;;;;;5070026;28;20035;-80
2022/11/23 08:46:38;;;;;;;8.23;7.00;;;11.20;94.50;;;;;;5064369;28;20029;-78
2022/11/23 08:49:06;;;;;;;21.77;5.90;;;11.30;94.50;;;;;;5048580;28;20033;-81
2022/11/23 08:51:31;;;;;;;10.77;3.92;;;11.40;95.10;;;;;;5061561;28;20051;-82
2022/11/23 08:53:57;;;;;;;8.45;7.22;;;11.60;96.10;;;;;;5068974;28;20473;-81
2022/11/23 08:56:23;;;;;;;9.05;7.13;;;11.80;95.20;;;;;;5065711;28;20029;-80
2022/11/23 08:58:49;;;;;;;9.93;7.70;;;11.80;94.50;;;;;;5061930;28;20072;-81
2022/11/23 09:01:16;;;;;;;7.97;5.93;;;11.80;94.20;;;;;;5062306;28;20033;-83
2022/11/23 09:03:43;;;;;;;8.45;6.22;;;11.80;94.30;;;;;;5065969;28;20055;-82
2022/11/23 09:06:09;;;;;;;8.75;6.82;;;11.90;94.20;;;;;;5051536;28;20732;-80
2022/11/23 09:08:35;;;;;;;8.25;6.28;;;11.90;94.20;;;;;;5048815;28;20024;-81
2022/11/23 09:11:04;;;;;;;7.72;6.38;;;12.00;94.10;;;;;;5067710;28;20453;-80
2022/11/23 09:13:30;;;;;;;7.70;6.43;;;12.00;94.00;;;;;;5064998;28;20111;-81
2022/11/23 09:15:57;;;;;;;6.07;5.47;;;12.10;93.90;;;;;;5061493;28;20079;-81
2022/11/23 09:18:23;;;;;;;9.05;7.20;;;12.10;93.50;;;;;;5065950;28;20043;-80
2022/11/23 09:20:49;;;;;;;9.20;6.60;;;12.10;92.60;;;;;;5068950;28;20056;-82
2022/11/23 09:23:15;;;;;;;8.20;5.82;;;12.10;93.00;;;;;;5060200;28;20024;-82
2022/11/23 09:25:42;;;;;;;9.63;5.65;;;12.20;93.30;;;;;;5063462;28;20108;-81
2022/11/23 09:28:08;;;;;;;6.72;5.40;;;12.20;93.00;;;;;;5065197;28;20108;-82
2022/11/23 09:30:34;;;;;;;7.78;6.28;;;12.40;93.20;;;;;;5063964;28;20116;-81
2022/11/23 09:32:59;;;;;;;6.90;5.88;;;12.40;93.10;;;;;;5066959;28;20028;-81
2022/11/23 09:35:25;;;;;;;7.50;5.53;;;12.50;93.00;;;;;;5044350;28;20036;-80
2022/11/23 09:37:56;;;;;;;5.00;4.50;;;12.60;92.60;;;;;;5067069;28;20024;-81
2022/11/23 09:40:35;;;;;;;11.68;5.18;;;12.70;92.70;;;;;;5054900;28;20473;-81
2022/11/23 09:43:29;;;;;;;7.13;5.95;;;12.80;92.60;;;;;;5058747;28;20036;-76
2022/11/23 09:45:59;;;;;;;6.05;5.00;;;12.90;92.50;;;;;;5058506;28;20454;-76
2022/11/23 09:48:40;;;;;;;6.25;4.55;;;13.00;92.00;;;;;;5058413;28;20021;-76
2022/11/23 09:51:17;;;;;;;5.25;4.15;;;13.10;91.90;;;;;;5052495;28;20060;-76
2022/11/23 09:54:03;;;;;;;6.65;4.40;;;13.20;91.80;;;;;;5070275;28;20055;-76
2022/11/23 09:56:34;;;;;;;5.80;4.45;;;13.20;91.60;;;;;;5068667;28;20113;-76
2022/11/23 09:59:01;;;;;;;;;;;13.30;91.40;;;;;;5045729;28;20342;-76
2022/11/23 10:01:27;;;;;;;6.88;4.07;;;13.40;91.40;;;;;;5070262;28;19912;-76
2022/11/23 10:03:53;;;;;;;5.25;4.00;;;13.40;91.10;;;;;;5058755;28;20033;-76
2022/11/23 10:06:30;;;;;;;4.07;3.67;;;13.40;91.00;;;;;;5063747;28;20017;-76
2022/11/23 10:09:40;;;;;;;5.07;3.67;;;13.50;91.00;;;;;;5067188;28;20020;-75
2022/11/23 10:12:53;;;;;;;4.97;4.00;;;13.60;91.10;;;;;;5059849;28;20074;-80
2022/11/23 10:15:50;;;;;;;6.47;3.70;;;13.60;90.90;;;;;;5050322;28;20048;-80
2022/11/23 10:18:34;;;;;;;6.15;4.13;;;13.70;91.00;;;;;;5057251;28;20028;-80
2022/11/23 10:21:06;;;;;;;9.68;5.72;;;13.70;90.80;;;;;;5059884;28;20049;-76
2022/11/23 10:23:49;;;;;;;6.55;4.55;;;13.80;90.60;;;;;;5062406;28;20284;-76
2022/11/23 10:26:18;;;;;;;5.30;3.88;;;13.90;90.50;;;;;;5071000;28;20373;-75
2022/11/23 10:28:52;;;;;;;4.75;4.03;;;14.00;88.10;;;;;;5055743;28;20480;-75
2022/11/23 10:31:20;;;;;;;3.67;3.17;;;14.20;89.40;;;;;;5043908;28;20118;-76
2022/11/23 10:33:58;;;;;;;4.03;3.25;;;14.60;90.10;;;;;;5062641;28;20028;-76
2022/11/23 10:36:23;;;;;;;3.55;2.85;;;14.90;90.20;;;;;;5068218;28;20035;-75
2022/11/23 10:38:58;;;;;;;5.82;3.05;;;15.30;89.20;;;;;;5064482;28;20028;-74
2022/11/23 10:41:24;;;;;;;3.22;2.85;;;15.60;85.90;;;;;;5057301;28;20929;-75
2022/11/23 10:44:15;;;;;;;4.80;2.35;;;15.60;84.00;;;;;;5069939;28;20492;-76
2022/11/23 10:46:41;;;;;;;4.25;2.42;;;15.80;84.70;;;;;;5052429;28;20500;-74
2022/11/23 10:49:09;;;;;;;3.15;2.00;;;16.00;82.90;;;;;;5067065;28;20033;-76
2022/11/23 10:51:36;;;;;;;3.05;2.28;;;16.20;84.30;;;;;;5073111;28;20381;-77
2022/11/23 10:54:05;;;;;;;2.42;1.85;;;16.30;82.60;;;;;;5066173;28;20057;-77
2022/11/23 10:56:33;;;;;;;2.58;1.85;;;16.30;82.70;;;;;;5067536;28;20035;-77
2022/11/23 10:58:59;;;;;;;4.88;2.33;;;16.20;80.80;;;;;;5051555;28;20372;-78
2022/11/23 11:01:28;;;;;;;2.72;2.28;;;16.20;81.50;;;;;;5048492;28;20509;-82
2022/11/23 11:04:00;;;;;;;2.92;2.08;;;16.40;81.60;;;;;;5065909;28;20020;-76
2022/11/23 11:06:31;;;;;;;3.10;2.30;;;16.60;81.70;;;;;;5067312;28;20037;-76
2022/11/23 11:09:00;;;;;;;3.80;2.00;;;16.80;78.10;;;;;;5065793;28;20086;-76
2022/11/23 11:11:25;;;;;;;2.75;2.22;;;17.00;81.90;;;;;;5071588;28;20525;-77
2022/11/23 11:14:01;;;;;;;3.10;2.40;;;17.20;78.80;;;;;;5066172;28;20557;-77
2022/11/23 11:16:32;;;;;;;5.53;2.75;;;17.30;72.90;;;;;;5049968;28;20515;-77
2022/11/23 11:18:58;;;;;;;3.00;2.40;;;17.50;79.20;;;;;;5049466;28;20082;-77
2022/11/23 11:21:34;;;;;;;3.53;2.72;;;17.60;74.40;;;;;;5064188;28;20111;-77
2022/11/23 11:24:01;;;;;;;2.72;2.17;;;17.80;73.90;;;;;;5070515;28;20028;-80
2022/11/23 11:26:32;;;;;;;3.13;2.47;;;18.00;75.80;;;;;;5047204;28;20029;-80
2022/11/23 11:29:08;;;;;;;3.72;2.53;;;18.20;77.60;;;;;;5050324;28;20036;-81
2022/11/23 11:32:15;;;;;;;3.42;2.40;;;18.90;72.90;;;;;;5068901;28;20563;-81
2022/11/23 11:34:50;;;;;;;2.53;2.15;;;20.10;74.20;;;;;;5065992;28;20037;-81
2022/11/23 11:37:34;;;;;;;3.70;2.58;;;21.40;70.00;;;;;;5067932;28;20075;-81
2022/11/23 11:40:17;;;;;;;2.75;2.22;;;22.40;67.20;;;;;;5066238;28;20029;-80
2022/11/23 11:43:10;;;;;;;2.88;2.40;;;23.40;63.90;;;;;;5065611;28;20028;-80
2022/11/23 11:45:39;;;;;;;3.15;2.70;;;24.50;61.80;;;;;;5065379;28;20021;-80
2022/11/23 11:48:33;;;;;;;3.03;2.27;;;25.40;54.90;;;;;;5068428;28;20040;-80
2022/11/23 11:51:24;;;;;;;3.38;2.38;;;25.90;56.50;;;;;;5066005;28;20032;-80
2022/11/23 11:54:10;;;;;;;2.85;2.20;;;26.80;54.40;;;;;;5066994;28;20032;-82
2022/11/23 11:56:44;;;;;;;3.05;2.53;;;26.80;48.00;;;;;;5063411;28;20420;-81
2022/11/23 11:59:23;;;;;;;2.85;2.13;;;27.00;51.00;;;;;;5068195;28;20086;-82
2022/11/23 12:02:25;;;;;;;3.50;2.33;;;27.00;50.40;;;;;;5060453;28;20405;-83
2022/11/23 12:05:19;;;;;;;1.95;1.73;;;27.40;49.90;;;;;;5063862;28;20071;-80
2022/11/23 12:08:02;;;;;;;2.00;1.77;;;27.80;48.40;;;;;;5063336;28;20984;-78
2022/11/23 12:10:33;;;;;;;2.30;1.65;;;27.90;47.30;;;;;;5070423;28;20438;-80
2022/11/23 12:12:59;;;;;;;2.03;1.80;;;28.10;45.90;;;;;;5051187;28;20033;-79
2022/11/23 12:15:39;;;;;;;1.85;1.60;;;27.90;46.60;;;;;;5065732;28;20404;-78
2022/11/23 12:18:13;;;;;;;2.00;1.65;;;27.80;43.50;;;;;;5069452;28;20090;-76
2022/11/23 12:20:49;;;;;;;1.85;1.40;;;27.40;46.40;;;;;;5066676;28;20044;-76
2022/11/23 12:23:18;;;;;;;3.55;2.20;;;27.30;46.40;;;;;;5062997;28;20488;-75
2022/11/23 12:25:56;;;;;;;2.08;1.40;;;26.70;44.30;;;;;;5061883;28;20024;-76
2022/11/23 12:28:39;;;;;;;2.05;1.42;;;26.00;47.40;;;;;;5073274;28;20028;-76
2022/11/23 12:31:14;;;;;;;1.80;1.20;;;25.60;48.40;;;;;;5044920;28;20048;-84
2022/11/23 12:33:59;;;;;;;4.07;1.48;;;25.60;48.80;;;;;;5044534;28;20028;-77
2022/11/23 12:36:55;;;;;;;1.88;1.45;;;25.40;46.80;;;;;;5064342;28;20500;-76
2022/11/23 12:40:09;;;;;;;1.30;1.20;;;25.40;48.80;;;;;;5042020;28;20079;-83
2022/11/23 12:42:41;;;;;;;3.15;1.10;;;25.20;48.30;;;;;;4982688;28;20105;-82
2022/11/23 12:45:40;;;;;;;1.48;1.27;;;25.40;48.70;;;;;;5062289;28;20031;-82
2022/11/23 12:48:22;;;;;;;2.53;1.30;;;25.40;47.30;;;;;;5058466;28;20032;-81
2022/11/23 12:51:22;;;;;;;5.85;1.80;;;25.40;49.20;;;;;;5069659;28;20488;-82
2022/11/23 12:54:07;;;;;;;4.72;1.58;;;25.40;49.00;;;;;;5060613;28;20033;-82
2022/11/23 12:56:47;;;;;;;2.10;1.38;;;25.20;48.70;;;;;;5071567;28;20043;-82